createdAt,value
2022-08-07T00:00:59.515Z,2.25
2022-08-07T00:04:03.519Z,2.00
2022-08-07T00:07:09.587Z,2.10
2022-08-07T00:10:27.186Z,2.00
2022-08-07T00:13:32.919Z,2.10
2022-08-07T00:16:35.966Z,2.12
2022-08-07T00:20:01.461Z,2.20
2022-08-07T00:23:00.957Z,1.92
2022-08-07T00:26:18.588Z,1.95
2022-08-07T00:29:31.415Z,2.40
2022-08-07T00:32:35.042Z,2.20
2022-08-07T00:35:38.346Z,1.98
2022-08-07T00:38:40.874Z,2.20
2022-08-07T00:41:53.433Z,2.30
2022-08-07T00:45:07.061Z,2.12
2022-08-07T00:48:11.271Z,2.03
2022-08-07T00:51:14.368Z,2.08
2022-08-07T00:54:19.645Z,2.10
2022-08-07T00:57:25.159Z,2.10
2022-08-07T01:00:29.004Z,2.08
2022-08-07T01:03:55.450Z,2.10
2022-08-07T01:06:57.717Z,2.00
2022-08-07T01:10:07.182Z,2.13
2022-08-07T01:13:16.469Z,2.10
2022-08-07T01:16:30.062Z,2.12
2022-08-07T01:19:34.599Z,1.80
2022-08-07T01:22:54.338Z,1.80
2022-08-07T01:26:08.446Z,1.92
2022-08-07T01:29:17.454Z,2.08
2022-08-07T01:32:22.422Z,2.20
2022-08-07T01:35:26.652Z,2.10
2022-08-07T01:38:49.408Z,2.00
2022-08-07T01:42:07.420Z,1.77
2022-08-07T01:45:18.459Z,2.20
2022-08-07T01:48:30.378Z,2.20
2022-08-07T01:52:03.459Z,2.10
2022-08-07T01:55:00.227Z,2.12
2022-08-07T01:58:29.233Z,1.80
2022-08-07T02:02:00.035Z,2.15
2022-08-07T02:05:04.986Z,1.90
2022-08-07T02:08:16.156Z,1.90
2022-08-07T02:11:30.997Z,1.90
2022-08-07T02:14:53.793Z,2.00
2022-08-07T02:18:02.805Z,2.08
2022-08-07T02:21:08.493Z,2.00
2022-08-07T02:24:19.739Z,2.20
2022-08-07T02:27:23.691Z,2.33
2022-08-07T02:30:27.677Z,2.10
2022-08-07T02:33:42.053Z,1.83
2022-08-07T02:36:59.214Z,1.85
2022-08-07T02:40:29.845Z,2.15
2022-08-07T02:43:30.223Z,2.17
2022-08-07T02:46:34.264Z,2.10
2022-08-07T02:49:57.585Z,2.70
2022-08-07T02:53:07.032Z,2.05
2022-08-07T02:56:21.772Z,2.20
2022-08-07T02:59:27.410Z,1.92
2022-08-07T03:02:31.990Z,2.03
2022-08-07T03:05:37.088Z,2.10
2022-08-07T03:08:40.951Z,2.15
2022-08-07T03:11:51.734Z,2.25
2022-08-07T03:15:07.902Z,2.28
2022-08-07T03:18:20.017Z,2.25
2022-08-07T03:21:24.495Z,2.22
2022-08-07T03:24:28.759Z,2.72
2022-08-07T03:27:58.719Z,2.12
2022-08-07T03:31:16.991Z,2.50
2022-08-07T03:34:22.570Z,2.22
2022-08-07T03:37:28.020Z,2.20
2022-08-07T03:40:36.169Z,2.50
2022-08-07T03:43:39.842Z,2.10
2022-08-07T03:47:13.287Z,2.30
2022-08-07T03:50:22.883Z,2.25
2022-08-07T03:53:50.167Z,2.10
2022-08-07T03:57:03.524Z,2.20
2022-08-07T04:00:07.980Z,2.30
2022-08-07T04:03:18.282Z,2.40
2022-08-07T04:06:37.906Z,1.90
2022-08-07T04:09:50.129Z,2.20
2022-08-07T04:12:54.916Z,1.85
2022-08-07T04:15:58.411Z,2.47
2022-08-07T04:19:04.223Z,2.08
2022-08-07T04:22:18.951Z,2.10
2022-08-07T04:25:23.525Z,2.33
2022-08-07T04:28:26.863Z,2.17
2022-08-07T04:31:38.982Z,2.00
2022-08-07T04:34:55.597Z,2.07
2022-08-07T04:38:03.384Z,2.05
2022-08-07T04:41:10.789Z,1.85
2022-08-07T04:44:22.755Z,1.90
2022-08-07T04:48:01.133Z,1.90
2022-08-07T04:51:04.021Z,1.70
2022-08-07T04:54:30.158Z,1.70
2022-08-07T04:58:34.982Z,1.52
2022-08-07T05:01:46.974Z,1.58
2022-08-07T05:05:11.906Z,2.17
2022-08-07T05:08:45.855Z,1.83
2022-08-07T05:12:07.496Z,1.27
2022-08-07T05:15:23.530Z,1.73
2022-08-07T05:18:29.998Z,1.60
2022-08-07T05:21:59.797Z,1.85
2022-08-07T05:25:01.256Z,3.03
2022-08-07T05:28:20.352Z,2.00
2022-08-07T05:31:35.129Z,2.20
2022-08-07T05:34:41.989Z,0.90
2022-08-07T05:37:46.245Z,1.10
2022-08-07T05:41:14.345Z,1.42
2022-08-07T05:44:29.468Z,1.02
2022-08-07T05:47:38.217Z,1.13
2022-08-07T05:50:59.445Z,1.10
2022-08-07T05:54:12.984Z,1.00
2022-08-07T05:57:30.104Z,0.82
2022-08-07T06:00:38.534Z,0.95
2022-08-07T06:03:56.503Z,1.00
2022-08-07T06:07:05.930Z,0.90
2022-08-07T06:10:15.149Z,1.00
2022-08-07T06:13:19.850Z,1.10
2022-08-07T06:16:50.597Z,1.10
2022-08-07T06:20:03.725Z,1.00
2022-08-07T06:23:45.813Z,1.00
2022-08-07T06:26:31.797Z,1.12
2022-08-07T06:29:38.754Z,1.10
2022-08-07T06:32:41.955Z,1.00
2022-08-07T06:36:06.807Z,1.00
2022-08-07T06:40:17.187Z,1.13
2022-08-07T06:42:37.586Z,1.08
2022-08-07T06:45:44.281Z,1.00
2022-08-07T06:48:47.745Z,1.00
2022-08-07T06:51:59.226Z,0.90
2022-08-07T06:55:33.208Z,1.23
2022-08-07T07:00:14.772Z,1.00
2022-08-07T07:02:49.253Z,1.20
2022-08-07T07:06:05.048Z,1.50
2022-08-07T07:09:23.078Z,1.55
2022-08-07T07:12:53.557Z,1.08
2022-08-07T07:16:03.167Z,1.42
2022-08-07T07:19:56.262Z,1.00
2022-08-07T07:22:36.194Z,1.00
2022-08-07T07:26:31.225Z,1.00
2022-08-07T07:29:39.391Z,1.10
2022-08-07T07:32:40.403Z,1.00
2022-08-07T07:35:54.705Z,0.93
2022-08-07T07:39:10.331Z,0.98
2022-08-07T07:42:19.719Z,1.00
2022-08-07T07:46:37.128Z,1.10
2022-08-07T07:48:59.931Z,1.10
2022-08-07T07:52:13.063Z,1.10
2022-08-07T07:55:18.635Z,1.00
2022-08-07T07:58:23.052Z,1.08
2022-08-07T08:02:03.731Z,1.20
2022-08-07T08:04:57.523Z,0.90
2022-08-07T08:08:01.950Z,1.15
2022-08-07T08:11:08.428Z,1.20
2022-08-07T08:14:11.553Z,0.95
2022-08-07T08:17:58.243Z,1.20
2022-08-07T08:20:39.438Z,0.90
2022-08-07T08:24:05.176Z,1.20
2022-08-07T08:27:09.750Z,1.15
2022-08-07T08:30:17.402Z,1.20
2022-08-07T08:33:24.981Z,0.95
2022-08-07T08:36:34.117Z,1.23
2022-08-07T08:39:39.645Z,0.95
2022-08-07T08:43:15.966Z,1.08
2022-08-07T08:46:28.852Z,1.08
2022-08-07T08:50:05.068Z,0.93
2022-08-07T08:53:29.421Z,1.20
2022-08-07T08:56:47.100Z,1.10
2022-08-07T09:00:13.962Z,0.90
2022-08-07T09:03:47.929Z,0.95
2022-08-07T09:07:14.418Z,0.90
2022-08-07T09:10:54.597Z,1.02
2022-08-07T09:14:32.049Z,1.00
2022-08-07T09:17:59.385Z,0.95
2022-08-07T09:22:10.084Z,1.00
2022-08-07T09:25:24.319Z,1.10
2022-08-07T09:30:05.754Z,1.10
2022-08-07T09:32:21.667Z,1.08
2022-08-07T09:36:01.205Z,1.00
2022-08-07T09:39:27.495Z,1.00
2022-08-07T09:42:39.641Z,1.62
2022-08-07T09:47:42.521Z,1.10
2022-08-07T09:50:00.888Z,1.00
2022-08-07T09:53:10.040Z,1.02
2022-08-07T09:56:55.311Z,1.30
2022-08-07T10:00:08.819Z,1.20
2022-08-07T10:04:07.042Z,1.50
2022-08-07T10:07:25.775Z,1.30
2022-08-07T10:12:00.268Z,1.30
2022-08-07T10:15:01.886Z,1.15
2022-08-07T10:18:20.154Z,1.30
2022-08-07T10:22:14.731Z,1.05
2022-08-07T10:25:13.693Z,1.30
2022-08-07T10:28:50.220Z,1.40
2022-08-07T10:31:57.504Z,1.60
2022-08-07T10:35:09.125Z,1.60
2022-08-07T10:38:42.345Z,1.60
2022-08-07T10:42:20.922Z,1.40
2022-08-07T10:45:57.170Z,1.50
2022-08-07T10:49:45.284Z,1.55
2022-08-07T10:52:55.431Z,1.42
2022-08-07T10:56:05.072Z,1.67
2022-08-07T10:59:37.338Z,1.90
2022-08-07T11:03:02.289Z,1.80
2022-08-07T11:06:21.922Z,2.37
2022-08-07T11:10:07.276Z,2.15
2022-08-07T11:14:42.221Z,1.62
2022-08-07T11:17:23.141Z,1.77
2022-08-07T11:21:20.669Z,2.03
2022-08-07T11:24:33.596Z,2.20
2022-08-07T11:28:16.744Z,1.98
2022-08-07T11:31:37.188Z,1.80
2022-08-07T11:34:47.800Z,1.80
2022-08-07T11:38:12.511Z,1.80
2022-08-07T11:41:28.288Z,2.05
2022-08-07T11:45:13.291Z,1.70
2022-08-07T11:48:37.554Z,2.20
2022-08-07T11:52:10.568Z,1.92
2022-08-07T11:56:25.050Z,2.30
2022-08-07T12:00:12.045Z,2.33
2022-08-07T12:03:41.858Z,2.60
2022-08-07T12:06:51.680Z,2.60
2022-08-07T12:10:12.713Z,2.58
2022-08-07T12:13:43.426Z,2.67
2022-08-07T12:17:04.320Z,2.25
2022-08-07T12:20:30.893Z,2.20
2022-08-07T12:24:07.615Z,2.08
2022-08-07T12:27:28.147Z,2.20
2022-08-07T12:30:46.606Z,2.42
2022-08-07T12:33:56.128Z,2.33
2022-08-07T12:37:08.629Z,2.25
2022-08-07T12:40:47.406Z,2.00
2022-08-07T12:44:02.222Z,3.28
2022-08-07T12:47:37.749Z,3.00
2022-08-07T12:51:17.126Z,2.70
2022-08-07T12:54:41.617Z,2.60
2022-08-07T12:58:01.349Z,2.42
2022-08-07T13:01:18.290Z,2.47
2022-08-07T13:05:01.961Z,2.47
2022-08-07T13:08:31.757Z,2.45
2022-08-07T13:12:03.518Z,2.62
2022-08-07T13:15:32.570Z,2.70
2022-08-07T13:18:48.968Z,2.45
2022-08-07T13:22:04.136Z,2.85
2022-08-07T13:25:30.001Z,2.67
2022-08-07T13:29:06.644Z,2.58
2022-08-07T13:32:32.404Z,2.60
2022-08-07T13:36:00.584Z,2.72
2022-08-07T13:39:12.797Z,2.40
2022-08-07T13:42:35.196Z,2.28
2022-08-07T13:46:16.406Z,2.30
2022-08-07T13:50:33.009Z,2.40
2022-08-07T13:52:43.004Z,2.20
2022-08-07T13:55:54.902Z,2.30
2022-08-07T13:59:01.343Z,2.30
2022-08-07T14:02:12.897Z,2.30
2022-08-07T14:05:23.159Z,2.50
2022-08-07T14:08:27.447Z,2.33
2022-08-07T14:11:53.608Z,2.42
2022-08-07T14:15:04.822Z,2.22
2022-08-07T14:18:27.898Z,2.35
2022-08-07T14:22:01.089Z,2.42
2022-08-07T14:25:15.799Z,2.70
2022-08-07T14:28:19.309Z,2.65
2022-08-07T14:31:25.263Z,3.00
2022-08-07T14:34:48.185Z,2.75
2022-08-07T14:38:05.814Z,2.50
2022-08-07T14:41:15.104Z,2.58
2022-08-07T14:44:37.434Z,2.70
2022-08-07T14:47:41.639Z,2.47
2022-08-07T14:50:53.232Z,3.20
2022-08-07T14:54:10.049Z,2.87
2022-08-07T14:57:24.542Z,3.12
2022-08-07T15:00:31.868Z,2.60
2022-08-07T15:03:52.150Z,2.75
2022-08-07T15:06:56.877Z,3.00
2022-08-07T15:10:04.679Z,2.85
2022-08-07T15:13:25.396Z,2.53
2022-08-07T15:16:37.264Z,3.83
2022-08-07T15:20:33.364Z,3.40
2022-08-07T15:25:03.055Z,2.90
2022-08-07T15:27:06.820Z,2.78
2022-08-07T15:30:16.652Z,2.70
2022-08-07T15:33:21.089Z,2.78
2022-08-07T15:37:03.110Z,2.83
2022-08-07T15:40:01.100Z,3.00
2022-08-07T15:43:52.826Z,3.30
2022-08-07T15:46:51.893Z,3.45
2022-08-07T15:50:03.687Z,3.05
2022-08-07T15:53:13.121Z,3.45
2022-08-07T15:56:19.621Z,3.30
2022-08-07T15:59:39.131Z,3.12
2022-08-07T16:02:46.675Z,2.85
2022-08-07T16:05:51.896Z,3.28
2022-08-07T16:08:59.726Z,3.28
2022-08-07T16:12:28.499Z,2.75
2022-08-07T16:16:42.984Z,4.20
2022-08-07T16:19:58.975Z,2.92
2022-08-07T16:23:52.917Z,3.00
2022-08-07T16:26:59.368Z,2.53
2022-08-07T16:30:30.459Z,3.00
2022-08-07T16:34:02.520Z,3.50
2022-08-07T16:38:03.535Z,2.97
2022-08-07T16:41:20.903Z,3.00
2022-08-07T16:45:24.596Z,3.10
2022-08-07T16:50:28.168Z,3.10
2022-08-07T16:52:57.326Z,2.65
2022-08-07T16:56:13.866Z,2.20
2022-08-07T16:59:51.205Z,2.78
2022-08-07T17:03:04.846Z,2.60
2022-08-07T17:06:30.413Z,4.03
2022-08-07T17:10:08.797Z,3.12
2022-08-07T17:13:22.705Z,4.53
2022-08-07T17:16:55.495Z,2.22
2022-08-07T17:20:14.071Z,7.43
2022-08-07T17:23:39.434Z,2.90
2022-08-07T17:27:32.733Z,3.17
2022-08-07T17:31:15.941Z,2.70
2022-08-07T17:38:11.406Z,2.00
2022-08-07T17:42:04.863Z,2.20
2022-08-07T17:44:58.550Z,2.72
2022-08-07T17:48:12.813Z,2.00
2022-08-07T17:51:23.109Z,2.15
2022-08-07T17:54:39.899Z,2.30
2022-08-07T17:58:04.993Z,2.37
2022-08-07T18:01:22.019Z,3.08
2022-08-07T18:04:35.097Z,2.40
2022-08-07T18:07:43.842Z,2.20
2022-08-07T18:12:07.797Z,2.10
2022-08-07T18:14:09.559Z,3.10
2022-08-07T18:18:46.258Z,2.55
2022-08-07T18:21:38.336Z,2.37
2022-08-07T18:24:37.383Z,2.30
2022-08-07T18:28:34.078Z,2.35
2022-08-07T18:31:52.493Z,2.20
2022-08-07T18:35:02.023Z,2.30
2022-08-07T18:38:57.755Z,2.30
2022-08-07T18:42:01.802Z,2.40
2022-08-07T18:45:44.210Z,2.12
2022-08-07T18:50:06.046Z,2.00
2022-08-07T18:52:52.754Z,2.20
2022-08-07T18:56:34.151Z,1.70
2022-08-07T19:00:00.442Z,1.90
2022-08-07T19:03:18.359Z,1.58
2022-08-07T19:06:33.763Z,2.15
2022-08-07T19:09:56.830Z,2.53
2022-08-07T19:13:25.682Z,1.70
2022-08-07T19:17:08.154Z,1.70
2022-08-07T19:20:29.989Z,1.58
2022-08-07T19:23:57.485Z,1.62
2022-08-07T19:28:29.076Z,1.85
2022-08-07T19:31:06.249Z,1.52
2022-08-07T19:33:59.916Z,1.60
2022-08-07T19:37:16.812Z,1.40
2022-08-07T19:40:30.981Z,1.60
2022-08-07T19:43:50.224Z,1.65
2022-08-07T19:47:05.015Z,1.80
2022-08-07T19:54:33.256Z,1.42
2022-08-07T19:57:59.946Z,1.35
2022-08-07T20:00:28.957Z,1.55
2022-08-07T20:03:36.262Z,1.60
2022-08-07T20:06:43.074Z,1.08
2022-08-07T20:10:37.932Z,1.42
2022-08-07T20:13:23.497Z,1.50
2022-08-07T20:16:36.344Z,1.30
2022-08-07T20:19:48.377Z,1.30
2022-08-07T20:23:23.446Z,1.50
2022-08-07T20:26:45.165Z,1.45
2022-08-07T20:30:02.094Z,1.40
2022-08-07T20:33:19.182Z,1.45
2022-08-07T20:36:36.492Z,1.30
2022-08-07T20:40:02.774Z,1.60
2022-08-07T20:43:14.807Z,1.73
2022-08-07T20:46:34.606Z,1.48
2022-08-07T20:49:58.116Z,1.50
2022-08-07T20:53:04.650Z,1.35
2022-08-07T20:56:10.513Z,1.55
2022-08-07T21:00:04.926Z,1.40
2022-08-07T21:02:58.601Z,1.25
2022-08-07T21:06:21.522Z,1.17
2022-08-07T21:09:35.431Z,1.30
2022-08-07T21:12:58.416Z,1.10
2022-08-07T21:16:05.181Z,1.35
2022-08-07T21:19:13.916Z,1.30
2022-08-07T21:22:19.335Z,1.37
2022-08-07T21:25:56.174Z,1.48
2022-08-07T21:29:15.881Z,1.27
2022-08-07T21:32:50.325Z,1.10
2022-08-07T21:36:31.282Z,1.20
2022-08-07T21:39:56.409Z,1.50
2022-08-07T21:43:00.178Z,1.40
2022-08-07T21:46:25.115Z,1.42
2022-08-07T21:50:01.297Z,1.37
2022-08-07T21:53:08.660Z,1.23
2022-08-07T21:56:36.498Z,1.27
2022-08-07T22:00:05.511Z,1.33
2022-08-07T22:03:31.011Z,1.77
2022-08-07T22:06:49.639Z,1.23
2022-08-07T22:09:57.156Z,1.98
2022-08-07T22:13:12.679Z,1.42
2022-08-07T22:16:39.616Z,1.80
2022-08-07T22:19:57.342Z,1.70
2022-08-07T22:23:09.738Z,1.40
2022-08-07T22:29:48.436Z,1.10
2022-08-07T22:33:05.128Z,1.00
2022-08-07T22:36:29.252Z,1.10
2022-08-07T22:39:52.737Z,1.10
2022-08-07T22:43:07.209Z,2.30
2022-08-07T22:47:02.266Z,2.20
2022-08-07T22:50:33.318Z,2.05
2022-08-07T22:54:08.271Z,2.65
2022-08-07T22:57:48.256Z,1.80
2022-08-07T23:01:01.684Z,1.30
2022-08-07T23:04:30.660Z,1.40
2022-08-07T23:08:24.400Z,1.75
2022-08-07T23:11:59.146Z,1.70
2022-08-07T23:16:04.504Z,1.48
2022-08-07T23:19:47.658Z,1.23
2022-08-07T23:22:59.143Z,1.50
2022-08-07T23:26:23.581Z,1.60
2022-08-07T23:30:39.357Z,1.08
2022-08-07T23:34:37.944Z,1.20
2022-08-07T23:38:19.181Z,1.10
2022-08-07T23:42:01.731Z,1.37
2022-08-07T23:45:05.154Z,1.17
2022-08-07T23:48:38.136Z,1.10
2022-08-07T23:53:06.749Z,1.30
2022-08-07T23:55:53.045Z,1.10
2022-08-07T23:59:10.148Z,1.20
